createdAt,value
2022-11-27T00:00:11.209Z,1011.59
2022-11-27T00:01:11.237Z,1011.62
2022-11-27T00:02:11.400Z,1011.62
2022-11-27T00:03:11.526Z,1011.63
2022-11-27T00:04:11.598Z,1011.66
2022-11-27T00:05:11.597Z,1011.61
2022-11-27T00:06:11.672Z,1011.60
2022-11-27T00:07:11.811Z,1011.61
2022-11-27T00:08:11.842Z,1011.57
2022-11-27T00:09:11.918Z,1011.59
2022-11-27T00:10:12.022Z,1011.53
2022-11-27T00:11:12.103Z,1011.53
2022-11-27T00:12:12.206Z,1011.53
2022-11-27T00:13:12.288Z,1011.51
2022-11-27T00:14:12.375Z,1011.48
2022-11-27T00:15:17.111Z,1011.43
2022-11-27T00:16:12.603Z,1011.44
2022-11-27T00:17:12.626Z,1011.45
2022-11-27T00:18:12.705Z,1011.48
2022-11-27T00:19:12.775Z,1011.47
2022-11-27T00:20:12.901Z,1011.43
2022-11-27T00:21:12.940Z,1011.45
2022-11-27T00:22:13.026Z,1011.43
2022-11-27T00:23:13.107Z,1011.43
2022-11-27T00:24:13.217Z,1011.43
2022-11-27T00:25:13.314Z,1011.51
2022-11-27T00:26:13.372Z,1011.47
2022-11-27T00:27:13.452Z,1011.53
2022-11-27T00:28:13.559Z,1011.50
2022-11-27T00:29:13.636Z,1011.56
2022-11-27T00:30:13.753Z,1011.59
2022-11-27T00:31:13.877Z,1011.54
2022-11-27T00:32:13.913Z,1011.56
2022-11-27T00:33:13.992Z,1011.53
2022-11-27T00:34:14.097Z,1011.52
2022-11-27T00:35:14.187Z,1011.53
2022-11-27T00:36:14.290Z,1011.52
2022-11-27T00:37:14.362Z,1011.51
2022-11-27T00:38:14.454Z,1011.49
2022-11-27T00:39:14.530Z,1011.44
2022-11-27T00:40:14.646Z,1011.46
2022-11-27T00:41:14.689Z,1011.43
2022-11-27T00:42:14.760Z,1011.46
2022-11-27T00:43:14.840Z,1011.43
2022-11-27T00:44:14.931Z,1011.43
2022-11-27T00:45:15.025Z,1011.44
2022-11-27T00:46:15.189Z,1011.42
2022-11-27T00:47:15.180Z,1011.41
2022-11-27T00:48:15.276Z,1011.39
2022-11-27T00:49:15.364Z,1011.33
2022-11-27T00:50:15.657Z,1011.40
2022-11-27T00:51:15.484Z,1011.36
2022-11-27T00:52:15.572Z,1011.33
2022-11-27T00:53:15.640Z,1011.33
2022-11-27T00:54:15.709Z,1011.27
2022-11-27T00:55:15.806Z,1011.26
2022-11-27T00:56:15.895Z,1011.26
2022-11-27T00:57:15.967Z,1011.23
2022-11-27T00:58:16.065Z,1011.25
2022-11-27T00:59:16.145Z,1011.26
2022-11-27T01:00:16.253Z,1011.28
2022-11-27T01:01:16.358Z,1011.27
2022-11-27T01:02:16.477Z,1011.23
2022-11-27T01:03:16.541Z,1011.22
2022-11-27T01:04:16.572Z,1011.30
2022-11-27T01:05:16.674Z,1011.23
2022-11-27T01:06:16.741Z,1011.26
2022-11-27T01:07:16.931Z,1011.20
2022-11-27T01:08:16.920Z,1011.23
2022-11-27T01:09:17.000Z,1011.18
2022-11-27T01:10:17.107Z,1011.23
2022-11-27T01:11:17.146Z,1011.16
2022-11-27T01:12:17.253Z,1011.15
2022-11-27T01:13:17.333Z,1011.14
2022-11-27T01:14:17.413Z,1011.16
2022-11-27T01:15:17.492Z,1011.20
2022-11-27T01:16:17.648Z,1011.15
2022-11-27T01:17:18.348Z,1011.18
2022-11-27T01:18:17.721Z,1011.18
2022-11-27T01:19:17.802Z,1011.17
2022-11-27T01:20:17.883Z,1011.23
2022-11-27T01:21:17.926Z,1011.23
2022-11-27T01:22:17.998Z,1011.24
2022-11-27T01:23:18.071Z,1011.26
2022-11-27T01:24:18.168Z,1011.24
2022-11-27T01:25:20.075Z,1011.25
2022-11-27T01:26:18.327Z,1011.24
2022-11-27T01:27:18.403Z,1011.23
2022-11-27T01:28:18.509Z,1011.23
2022-11-27T01:29:18.591Z,1011.17
2022-11-27T01:30:18.693Z,1011.16
2022-11-27T01:31:18.906Z,1011.14
2022-11-27T01:32:18.843Z,1011.18
2022-11-27T01:33:18.916Z,1011.15
2022-11-27T01:34:19.026Z,1011.19
2022-11-27T01:35:19.108Z,1011.16
2022-11-27T01:36:19.182Z,1011.18
2022-11-27T01:37:19.261Z,1011.18
2022-11-27T01:38:19.371Z,1011.24
2022-11-27T01:39:19.448Z,1011.25
2022-11-27T01:40:19.544Z,1011.19
2022-11-27T01:41:19.618Z,1011.20
2022-11-27T01:42:19.716Z,1011.22
2022-11-27T01:43:19.792Z,1011.10
2022-11-27T01:44:19.899Z,1011.09
2022-11-27T01:45:19.989Z,1011.09
2022-11-27T01:46:20.147Z,1011.08
2022-11-27T01:47:20.163Z,1011.04
2022-11-27T01:48:20.236Z,1010.98
2022-11-27T01:49:20.321Z,1010.98
2022-11-27T01:50:20.419Z,1010.99
2022-11-27T01:51:20.496Z,1010.99
2022-11-27T01:52:20.589Z,1010.96
2022-11-27T01:53:20.655Z,1010.98
2022-11-27T01:54:20.742Z,1010.99
2022-11-27T01:55:20.826Z,1011.00
2022-11-27T01:56:20.916Z,1010.96
2022-11-27T01:57:20.997Z,1010.95
2022-11-27T01:58:21.104Z,1010.91
2022-11-27T01:59:21.177Z,1010.91
2022-11-27T02:00:21.295Z,1010.95
2022-11-27T02:01:21.403Z,1010.96
2022-11-27T02:02:21.511Z,1010.96
2022-11-27T02:03:21.578Z,1010.90
2022-11-27T02:04:21.575Z,1010.92
2022-11-27T02:05:21.688Z,1010.85
2022-11-27T02:06:21.736Z,1010.80
2022-11-27T02:07:21.889Z,1010.82
2022-11-27T02:08:21.935Z,1010.79
2022-11-27T02:09:22.015Z,1010.82
2022-11-27T02:10:22.101Z,1010.84
2022-11-27T02:11:22.140Z,1010.85
2022-11-27T02:12:22.224Z,1010.84
2022-11-27T02:13:22.305Z,1010.88
2022-11-27T02:14:22.396Z,1010.78
2022-11-27T02:15:22.491Z,1010.85
2022-11-27T02:16:22.621Z,1010.80
2022-11-27T02:17:22.655Z,1010.83
2022-11-27T02:18:22.733Z,1010.79
2022-11-27T02:19:22.837Z,1010.87
2022-11-27T02:20:22.933Z,1010.81
2022-11-27T02:21:22.990Z,1010.80
2022-11-27T02:22:23.072Z,1010.79
2022-11-27T02:23:23.178Z,1010.80
2022-11-27T02:24:23.258Z,1010.80
2022-11-27T02:25:28.128Z,1010.78
2022-11-27T02:26:23.445Z,1010.77
2022-11-27T02:27:23.519Z,1010.73
2022-11-27T02:28:23.598Z,1010.71
2022-11-27T02:29:23.708Z,1010.70
2022-11-27T02:30:23.802Z,1010.67
2022-11-27T02:31:23.951Z,1010.62
2022-11-27T02:32:23.958Z,1010.57
2022-11-27T02:33:24.028Z,1010.54
2022-11-27T02:34:24.110Z,1010.51
2022-11-27T02:35:24.215Z,1010.51
2022-11-27T02:36:24.259Z,1010.50
2022-11-27T02:37:24.366Z,1010.50
2022-11-27T02:38:24.439Z,1010.52
2022-11-27T02:39:24.550Z,1010.55
2022-11-27T02:40:24.635Z,1010.48
2022-11-27T02:41:24.710Z,1010.47
2022-11-27T02:42:24.778Z,1010.43
2022-11-27T02:43:24.867Z,1010.43
2022-11-27T02:44:24.940Z,1010.43
2022-11-27T02:45:25.055Z,1010.47
2022-11-27T02:46:25.198Z,1010.49
2022-11-27T02:47:25.230Z,1010.46
2022-11-27T02:48:25.308Z,1010.47
2022-11-27T02:49:25.404Z,1010.51
2022-11-27T02:50:25.497Z,1010.50
2022-11-27T02:51:25.578Z,1010.48
2022-11-27T02:52:25.629Z,1010.40
2022-11-27T02:53:25.736Z,1010.44
2022-11-27T02:54:25.813Z,1010.35
2022-11-27T02:55:25.936Z,1010.38
2022-11-27T02:56:26.015Z,1010.34
2022-11-27T02:57:26.086Z,1010.36
2022-11-27T02:58:26.163Z,1010.26
2022-11-27T02:59:26.272Z,1010.23
2022-11-27T03:00:26.369Z,1010.23
2022-11-27T03:01:26.473Z,1010.25
2022-11-27T03:02:26.570Z,1010.20
2022-11-27T03:03:26.599Z,1010.19
2022-11-27T03:04:26.659Z,1010.19
2022-11-27T03:05:26.784Z,1010.17
2022-11-27T03:06:26.822Z,1010.25
2022-11-27T03:07:27.009Z,1010.22
2022-11-27T03:08:27.010Z,1010.20
2022-11-27T03:09:27.121Z,1010.17
2022-11-27T03:10:27.215Z,1010.17
2022-11-27T03:11:27.303Z,1010.09
2022-11-27T03:12:27.380Z,1010.11
2022-11-27T03:13:27.473Z,1010.10
2022-11-27T03:14:27.555Z,1010.08
2022-11-27T03:15:27.671Z,1010.01
2022-11-27T03:16:27.770Z,1010.04
2022-11-27T03:17:27.848Z,1010.10
2022-11-27T03:18:27.927Z,1010.08
2022-11-27T03:19:28.034Z,1010.06
2022-11-27T03:20:28.123Z,1010.05
2022-11-27T03:21:28.204Z,1010.07
2022-11-27T03:22:28.287Z,1010.06
2022-11-27T03:23:28.378Z,1010.05
2022-11-27T03:24:28.453Z,1010.09
2022-11-27T03:25:28.546Z,1010.08
2022-11-27T03:26:28.586Z,1010.09
2022-11-27T03:27:28.690Z,1010.07
2022-11-27T03:28:28.769Z,1010.00
2022-11-27T03:29:28.875Z,1010.02
2022-11-27T03:30:28.959Z,1009.99
2022-11-27T03:31:29.080Z,1010.02
2022-11-27T03:32:29.109Z,1009.97
2022-11-27T03:33:29.213Z,1009.91
2022-11-27T03:34:29.307Z,1009.95
2022-11-27T03:35:29.409Z,1009.89
2022-11-27T03:36:29.446Z,1009.89
2022-11-27T03:37:29.551Z,1009.87
2022-11-27T03:38:29.633Z,1009.84
2022-11-27T03:39:29.739Z,1009.85
2022-11-27T03:40:29.834Z,1009.80
2022-11-27T03:41:29.913Z,1009.83
2022-11-27T03:42:29.996Z,1009.87
2022-11-27T03:43:30.100Z,1009.84
2022-11-27T03:44:30.176Z,1009.81
2022-11-27T03:45:30.279Z,1009.82
2022-11-27T03:46:30.403Z,1009.84
2022-11-27T03:47:30.516Z,1009.81
2022-11-27T03:48:30.506Z,1009.86
2022-11-27T03:49:30.609Z,1009.85
2022-11-27T03:50:30.701Z,1009.86
2022-11-27T03:51:30.761Z,1009.91
2022-11-27T03:52:30.847Z,1009.93
2022-11-27T03:53:30.949Z,1009.91
2022-11-27T03:54:31.037Z,1009.91
2022-11-27T03:55:31.155Z,1009.92
2022-11-27T03:56:31.227Z,1009.91
2022-11-27T03:57:31.336Z,1009.90
2022-11-27T03:58:31.409Z,1009.90
2022-11-27T03:59:31.514Z,1009.90
2022-11-27T04:00:31.604Z,1009.89
2022-11-27T04:01:31.711Z,1009.81
2022-11-27T04:02:31.736Z,1009.82
2022-11-27T04:03:31.897Z,1009.77
2022-11-27T04:04:31.903Z,1009.78
2022-11-27T04:05:32.035Z,1009.74
2022-11-27T04:06:32.083Z,1009.73
2022-11-27T04:07:32.215Z,1009.76
2022-11-27T04:08:32.212Z,1009.74
2022-11-27T04:09:32.303Z,1009.75
2022-11-27T04:10:32.398Z,1009.82
2022-11-27T04:11:32.459Z,1009.88
2022-11-27T04:12:32.541Z,1009.87
2022-11-27T04:13:32.634Z,1009.87
2022-11-27T04:14:32.700Z,1009.90
2022-11-27T04:15:32.821Z,1009.83
2022-11-27T04:16:32.912Z,1009.80
2022-11-27T04:17:32.960Z,1009.81
2022-11-27T04:18:33.036Z,1009.81
2022-11-27T04:19:33.143Z,1009.78
2022-11-27T04:20:33.235Z,1009.77
2022-11-27T04:21:33.325Z,1009.74
2022-11-27T04:22:33.395Z,1009.78
2022-11-27T04:23:33.517Z,1009.66
2022-11-27T04:24:33.581Z,1009.69
2022-11-27T04:25:33.700Z,1009.67
2022-11-27T04:26:33.778Z,1009.67
2022-11-27T04:27:33.890Z,1009.65
2022-11-27T04:28:33.961Z,1009.64
2022-11-27T04:29:34.068Z,1009.51
2022-11-27T04:30:34.160Z,1009.57
2022-11-27T04:31:34.322Z,1009.52
2022-11-27T04:32:34.322Z,1009.53
2022-11-27T04:33:34.413Z,1009.51
2022-11-27T04:34:34.475Z,1009.48
2022-11-27T04:35:34.593Z,1009.49
2022-11-27T04:36:39.002Z,1009.46
2022-11-27T04:37:34.724Z,1009.39
2022-11-27T04:38:34.809Z,1009.33
2022-11-27T04:39:34.877Z,1009.34
2022-11-27T04:40:34.969Z,1009.29
2022-11-27T04:41:35.044Z,1009.28
2022-11-27T04:42:35.120Z,1009.27
2022-11-27T04:43:35.223Z,1009.27
2022-11-27T04:44:35.305Z,1009.20
2022-11-27T04:45:35.394Z,1009.16
2022-11-27T04:46:35.488Z,1009.20
2022-11-27T04:47:35.517Z,1009.18
2022-11-27T04:48:35.596Z,1009.17
2022-11-27T04:49:35.708Z,1009.22
2022-11-27T04:50:35.811Z,1009.19
2022-11-27T04:51:35.880Z,1009.17
2022-11-27T04:52:35.961Z,1009.10
2022-11-27T04:53:36.050Z,1009.09
2022-11-27T04:54:36.133Z,1009.14
2022-11-27T04:55:36.374Z,1009.13
2022-11-27T04:56:36.269Z,1009.13
2022-11-27T04:57:36.377Z,1009.15
2022-11-27T04:58:36.452Z,1009.11
2022-11-27T04:59:36.570Z,1009.14
2022-11-27T05:00:36.777Z,1009.12
2022-11-27T05:01:36.726Z,1009.10
2022-11-27T05:02:36.873Z,1009.06
2022-11-27T05:03:36.894Z,1009.03
2022-11-27T05:04:36.981Z,1008.99
2022-11-27T05:05:37.107Z,1009.02
2022-11-27T05:06:37.148Z,1008.96
2022-11-27T05:07:37.326Z,1008.94
2022-11-27T05:08:37.331Z,1008.96
2022-11-27T05:09:37.435Z,1008.90
2022-11-27T05:10:37.524Z,1008.84
2022-11-27T05:11:37.595Z,1008.85
2022-11-27T05:12:37.676Z,1008.85
2022-11-27T05:13:37.778Z,1008.86
2022-11-27T05:14:38.303Z,1008.84
2022-11-27T05:15:37.978Z,1008.79
2022-11-27T05:16:38.068Z,1008.80
2022-11-27T05:17:38.112Z,1008.89
2022-11-27T05:18:38.192Z,1008.83
2022-11-27T05:19:38.301Z,1008.81
2022-11-27T05:20:38.389Z,1008.79
2022-11-27T05:21:38.462Z,1008.77
2022-11-27T05:22:38.547Z,1008.81
2022-11-27T05:23:38.643Z,1008.74
2022-11-27T05:24:39.117Z,1008.73
2022-11-27T05:25:38.863Z,1008.72
2022-11-27T05:26:38.894Z,1008.75
2022-11-27T05:27:39.001Z,1008.72
2022-11-27T05:28:39.068Z,1008.67
2022-11-27T05:29:39.176Z,1008.65
2022-11-27T05:30:39.226Z,1008.67
2022-11-27T05:31:39.327Z,1008.60
2022-11-27T05:32:39.382Z,1008.60
2022-11-27T05:33:39.486Z,1008.64
2022-11-27T05:34:40.021Z,1008.62
2022-11-27T05:35:39.679Z,1008.61
2022-11-27T05:36:39.722Z,1008.59
2022-11-27T05:37:39.818Z,1008.56
2022-11-27T05:38:39.891Z,1008.61
2022-11-27T05:39:39.983Z,1008.63
2022-11-27T05:40:40.072Z,1008.63
2022-11-27T05:41:40.162Z,1008.63
2022-11-27T05:42:40.239Z,1008.60
2022-11-27T05:43:40.312Z,1008.64
2022-11-27T05:44:40.687Z,1008.58
2022-11-27T05:45:40.481Z,1008.57
2022-11-27T05:46:40.620Z,1008.65
2022-11-27T05:47:40.606Z,1008.65
2022-11-27T05:48:40.686Z,1008.64
2022-11-27T05:49:40.791Z,1008.69
2022-11-27T05:50:40.887Z,1008.70
2022-11-27T05:51:40.970Z,1008.69
2022-11-27T05:52:41.049Z,1008.74
2022-11-27T05:53:41.138Z,1008.70
2022-11-27T05:54:41.474Z,1008.71
2022-11-27T05:55:41.324Z,1008.73
2022-11-27T05:56:41.361Z,1008.74
2022-11-27T05:57:41.431Z,1008.71
2022-11-27T05:58:41.509Z,1008.70
2022-11-27T05:59:41.620Z,1008.77
2022-11-27T06:00:41.709Z,1008.75
2022-11-27T06:01:41.871Z,1008.69
2022-11-27T06:02:42.030Z,1008.70
2022-11-27T06:03:42.031Z,1008.65
2022-11-27T06:04:42.353Z,1008.60
2022-11-27T06:05:42.127Z,1008.57
2022-11-27T06:06:42.173Z,1008.55
2022-11-27T06:07:42.328Z,1008.51
2022-11-27T06:08:42.356Z,1008.56
2022-11-27T06:09:42.433Z,1008.51
2022-11-27T06:10:42.523Z,1008.46
2022-11-27T06:11:42.654Z,1008.54
2022-11-27T06:12:42.679Z,1008.56
2022-11-27T06:13:42.751Z,1008.60
2022-11-27T06:14:43.156Z,1008.54
2022-11-27T06:15:42.922Z,1008.51
2022-11-27T06:16:43.071Z,1008.50
2022-11-27T06:17:43.090Z,1008.54
2022-11-27T06:18:43.173Z,1008.49
2022-11-27T06:19:43.244Z,1008.47
2022-11-27T06:20:45.284Z,1008.48
2022-11-27T06:21:43.406Z,1008.43
2022-11-27T06:22:43.492Z,1008.51
2022-11-27T06:23:43.592Z,1008.49
2022-11-27T06:24:43.781Z,1008.51
2022-11-27T06:25:43.761Z,1008.51
2022-11-27T06:26:43.803Z,1008.43
2022-11-27T06:27:43.891Z,1008.44
2022-11-27T06:28:43.971Z,1008.43
2022-11-27T06:29:44.044Z,1008.36
2022-11-27T06:30:44.133Z,1008.33
2022-11-27T06:31:44.334Z,1008.30
2022-11-27T06:32:44.309Z,1008.27
2022-11-27T06:33:44.369Z,1008.30
2022-11-27T06:34:44.473Z,1008.25
2022-11-27T06:35:44.571Z,1008.27
2022-11-27T06:36:44.639Z,1008.31
2022-11-27T06:37:44.727Z,1008.31
2022-11-27T06:38:44.800Z,1008.33
2022-11-27T06:39:44.871Z,1008.27
2022-11-27T06:40:44.992Z,1008.31
2022-11-27T06:41:45.069Z,1008.32
2022-11-27T06:42:45.179Z,1008.28
2022-11-27T06:43:45.270Z,1008.27
2022-11-27T06:44:45.340Z,1008.31
2022-11-27T06:45:45.501Z,1008.28
2022-11-27T06:46:45.498Z,1008.25
2022-11-27T06:47:45.568Z,1008.21
2022-11-27T06:48:45.677Z,1008.15
2022-11-27T06:49:45.742Z,1008.13
2022-11-27T06:50:45.872Z,1008.15
2022-11-27T06:51:45.910Z,1008.10
2022-11-27T06:52:46.003Z,1008.11
2022-11-27T06:53:46.074Z,1008.07
2022-11-27T06:54:46.182Z,1008.09
2022-11-27T06:55:46.283Z,1008.06
2022-11-27T06:56:46.352Z,1008.04
2022-11-27T06:57:46.434Z,1008.03
2022-11-27T06:58:46.523Z,1007.99
2022-11-27T06:59:46.595Z,1007.97
2022-11-27T07:00:46.775Z,1007.95
2022-11-27T07:01:46.924Z,1007.95
2022-11-27T07:02:46.852Z,1007.92
2022-11-27T07:03:46.951Z,1007.92
2022-11-27T07:04:47.038Z,1007.95
2022-11-27T07:05:47.151Z,1007.88
2022-11-27T07:06:47.211Z,1007.92
2022-11-27T07:07:47.310Z,1007.90
2022-11-27T07:08:47.367Z,1007.93
2022-11-27T07:09:47.444Z,1007.93
2022-11-27T07:10:47.566Z,1007.99
2022-11-27T07:11:47.637Z,1007.96
2022-11-27T07:12:47.743Z,1008.03
2022-11-27T07:13:47.881Z,1008.05
2022-11-27T07:14:47.913Z,1008.02
2022-11-27T07:15:48.001Z,1008.02
2022-11-27T07:16:48.174Z,1008.01
2022-11-27T07:17:48.157Z,1007.94
2022-11-27T07:18:48.272Z,1007.92
2022-11-27T07:19:48.336Z,1007.99
2022-11-27T07:20:52.448Z,1007.94
2022-11-27T07:21:48.519Z,1007.90
2022-11-27T07:22:48.605Z,1007.88
2022-11-27T07:23:48.643Z,1007.86
2022-11-27T07:24:48.750Z,1007.75
2022-11-27T07:25:48.844Z,1007.75
2022-11-27T07:26:48.919Z,1007.72
2022-11-27T07:27:49.001Z,1007.64
2022-11-27T07:28:49.063Z,1007.63
2022-11-27T07:29:49.144Z,1007.62
2022-11-27T07:30:49.254Z,1007.60
2022-11-27T07:31:49.357Z,1007.63
2022-11-27T07:32:49.414Z,1007.63
2022-11-27T07:33:49.495Z,1007.63
2022-11-27T07:34:49.598Z,1007.62
2022-11-27T07:35:49.689Z,1007.60
2022-11-27T07:36:49.769Z,1007.61
2022-11-27T07:37:49.855Z,1007.61
2022-11-27T07:38:49.953Z,1007.63
2022-11-27T07:40:05.003Z,1007.63
2022-11-27T07:40:50.140Z,1007.55
2022-11-27T07:41:50.183Z,1007.48
2022-11-27T07:42:50.250Z,1007.53
2022-11-27T07:43:50.327Z,1007.50
2022-11-27T07:44:50.429Z,1007.52
2022-11-27T07:45:50.566Z,1007.46
2022-11-27T07:46:50.606Z,1007.40
2022-11-27T07:47:50.686Z,1007.44
2022-11-27T07:48:50.777Z,1007.40
2022-11-27T07:49:50.855Z,1007.50
2022-11-27T07:50:50.981Z,1007.39
2022-11-27T07:51:51.014Z,1007.44
2022-11-27T07:52:51.101Z,1007.36
2022-11-27T07:53:51.169Z,1007.39
2022-11-27T07:54:51.241Z,1007.29
2022-11-27T07:55:51.440Z,1007.23
2022-11-27T07:56:51.407Z,1007.23
2022-11-27T07:57:51.481Z,1007.17
2022-11-27T07:58:51.577Z,1007.14
2022-11-27T07:59:51.649Z,1007.24
2022-11-27T08:00:51.814Z,1007.14
2022-11-27T08:01:51.817Z,1007.11
2022-11-27T08:02:51.921Z,1007.11
2022-11-27T08:03:51.994Z,1007.11
2022-11-27T08:04:52.166Z,1007.12
2022-11-27T08:05:52.193Z,1007.13
2022-11-27T08:06:52.241Z,1007.10
2022-11-27T08:07:52.485Z,1007.11
2022-11-27T08:08:52.406Z,1007.08
2022-11-27T08:09:52.481Z,1007.04
2022-11-27T08:10:52.612Z,1007.04
2022-11-27T08:11:52.650Z,1007.01
2022-11-27T08:12:52.761Z,1007.01
2022-11-27T08:13:52.831Z,1007.01
2022-11-27T08:14:52.943Z,1006.95
2022-11-27T08:15:53.041Z,1006.95
2022-11-27T08:16:53.171Z,1006.96
2022-11-27T08:17:53.162Z,1006.91
2022-11-27T08:18:53.270Z,1006.92
2022-11-27T08:19:53.338Z,1006.95
2022-11-27T08:20:53.469Z,1006.90
2022-11-27T08:21:53.495Z,1006.93
2022-11-27T08:22:55.938Z,1006.93
2022-11-27T08:23:53.644Z,1006.91
2022-11-27T08:24:53.714Z,1006.86
2022-11-27T08:25:53.808Z,1006.84
2022-11-27T08:26:53.880Z,1006.82
2022-11-27T08:27:53.955Z,1006.85
2022-11-27T08:28:54.028Z,1006.87
2022-11-27T08:29:54.088Z,1006.92
2022-11-27T08:30:54.174Z,1007.02
2022-11-27T08:31:54.263Z,1006.98
2022-11-27T08:32:54.295Z,1007.12
2022-11-27T08:33:54.357Z,1006.96
2022-11-27T08:34:54.447Z,1007.03
2022-11-27T08:35:54.551Z,1007.05
2022-11-27T08:36:54.619Z,1007.13
2022-11-27T08:37:54.685Z,1007.19
2022-11-27T08:38:54.781Z,1007.18
2022-11-27T08:39:54.850Z,1007.21
2022-11-27T08:40:54.945Z,1007.17
2022-11-27T08:41:54.985Z,1007.21
2022-11-27T08:42:55.070Z,1007.21
2022-11-27T08:43:55.161Z,1007.21
2022-11-27T08:44:55.240Z,1007.22
2022-11-27T08:45:55.382Z,1007.36
2022-11-27T08:46:55.415Z,1007.39
2022-11-27T08:47:55.486Z,1007.48
2022-11-27T08:48:55.596Z,1007.44
2022-11-27T08:49:55.676Z,1007.40
2022-11-27T08:50:55.789Z,1007.33
2022-11-27T08:51:55.819Z,1007.31
2022-11-27T08:52:55.929Z,1007.24
2022-11-27T08:53:56.018Z,1007.28
2022-11-27T08:54:57.957Z,1007.28
2022-11-27T08:55:56.208Z,1007.23
2022-11-27T08:56:56.271Z,1007.24
2022-11-27T08:57:56.346Z,1007.18
2022-11-27T08:58:56.456Z,1007.18
2022-11-27T08:59:56.641Z,1007.19
2022-11-27T09:00:56.706Z,1007.29
2022-11-27T09:01:56.702Z,1007.26
2022-11-27T09:02:56.782Z,1007.25
2022-11-27T09:03:56.968Z,1007.17
2022-11-27T09:04:56.937Z,1007.18
2022-11-27T09:05:57.048Z,1007.20
2022-11-27T09:06:58.689Z,1007.17
2022-11-27T09:07:57.226Z,1007.21
2022-11-27T09:08:57.268Z,1007.17
2022-11-27T09:09:57.323Z,1007.14
2022-11-27T09:10:57.407Z,1007.15
2022-11-27T09:11:57.446Z,1007.18
2022-11-27T09:12:57.516Z,1007.10
2022-11-27T09:13:57.588Z,1007.14
2022-11-27T09:14:57.660Z,1007.15
2022-11-27T09:15:57.744Z,1007.08
2022-11-27T09:16:57.850Z,1007.12
2022-11-27T09:17:57.872Z,1007.12
2022-11-27T09:18:57.957Z,1007.08
2022-11-27T09:19:58.033Z,1007.13
2022-11-27T09:20:58.132Z,1007.03
2022-11-27T09:21:58.170Z,1007.07
2022-11-27T09:22:58.280Z,1006.99
2022-11-27T09:23:58.355Z,1007.01
2022-11-27T09:24:58.425Z,1006.98
2022-11-27T09:25:58.513Z,1006.93
2022-11-27T09:26:58.587Z,1006.95
2022-11-27T09:27:58.662Z,1006.90
2022-11-27T09:28:58.739Z,1006.90
2022-11-27T09:29:58.819Z,1006.94
2022-11-27T09:30:58.923Z,1006.89
2022-11-27T09:31:59.059Z,1006.87
2022-11-27T09:32:59.040Z,1006.76
2022-11-27T09:33:59.120Z,1006.78
2022-11-27T09:34:59.281Z,1006.81
2022-11-27T09:35:59.304Z,1006.81
2022-11-27T09:36:59.363Z,1006.82
2022-11-27T09:37:59.441Z,1006.84
2022-11-27T09:38:59.525Z,1006.73
2022-11-27T09:39:59.605Z,1006.78
2022-11-27T09:41:03.094Z,1006.81
2022-11-27T09:41:59.755Z,1006.83
2022-11-27T09:42:59.849Z,1006.79
2022-11-27T09:43:59.922Z,1006.74
2022-11-27T09:45:00.025Z,1006.75
2022-11-27T09:46:00.217Z,1006.72
2022-11-27T09:47:00.192Z,1006.67
2022-11-27T09:48:00.251Z,1006.64
2022-11-27T09:49:00.349Z,1006.60
2022-11-27T09:50:00.424Z,1006.57
2022-11-27T09:51:00.547Z,1006.53
2022-11-27T09:52:00.601Z,1006.60
2022-11-27T09:53:00.677Z,1006.56
2022-11-27T09:54:00.752Z,1006.54
2022-11-27T09:55:00.850Z,1006.51
2022-11-27T09:56:01.174Z,1006.45
2022-11-27T09:57:01.020Z,1006.50
2022-11-27T09:58:01.089Z,1006.47
2022-11-27T09:59:01.229Z,1006.47
2022-11-27T10:00:01.279Z,1006.50
2022-11-27T10:01:01.395Z,1006.58
2022-11-27T10:02:01.626Z,1006.62
2022-11-27T10:03:01.713Z,1006.61
2022-11-27T10:04:01.623Z,1006.65
2022-11-27T10:05:17.843Z,1006.66
2022-11-27T10:06:01.834Z,1006.64
2022-11-27T10:07:01.894Z,1006.71
2022-11-27T10:08:06.412Z,1006.67
2022-11-27T10:09:02.056Z,1006.66
2022-11-27T10:10:02.131Z,1006.66
2022-11-27T10:11:02.257Z,1006.64
2022-11-27T10:12:02.299Z,1006.63
2022-11-27T10:13:02.368Z,1006.59
2022-11-27T10:14:02.453Z,1006.64
2022-11-27T10:15:02.541Z,1006.57
2022-11-27T10:16:02.633Z,1006.50
2022-11-27T10:17:02.773Z,1006.52
2022-11-27T10:18:02.772Z,1006.51
2022-11-27T10:19:02.839Z,1006.39
2022-11-27T10:20:02.913Z,1006.36
2022-11-27T10:21:03.024Z,1006.37
2022-11-27T10:22:03.068Z,1006.34
2022-11-27T10:23:03.160Z,1006.31
2022-11-27T10:24:03.232Z,1006.30
2022-11-27T10:25:03.312Z,1006.32
2022-11-27T10:26:03.405Z,1006.28
2022-11-27T10:27:03.473Z,1006.30
2022-11-27T10:28:03.535Z,1006.31
2022-11-27T10:29:03.650Z,1006.33
2022-11-27T10:30:03.737Z,1006.38
2022-11-27T10:31:03.838Z,1006.34
2022-11-27T10:32:03.945Z,1006.33
2022-11-27T10:33:04.018Z,1006.33
2022-11-27T10:34:04.028Z,1006.34
2022-11-27T10:35:04.102Z,1006.33
2022-11-27T10:36:04.194Z,1006.30
2022-11-27T10:37:04.261Z,1006.35
2022-11-27T10:38:07.097Z,1006.35
2022-11-27T10:39:04.429Z,1006.38
2022-11-27T10:40:04.499Z,1006.33
2022-11-27T10:41:04.590Z,1006.33
2022-11-27T10:42:04.675Z,1006.31
2022-11-27T10:43:04.723Z,1006.27
2022-11-27T10:44:04.800Z,1006.22
2022-11-27T10:45:04.865Z,1006.21
2022-11-27T10:46:05.011Z,1006.27
2022-11-27T10:47:05.000Z,1006.21
2022-11-27T10:48:05.058Z,1006.23
2022-11-27T10:49:05.159Z,1006.14
2022-11-27T10:50:05.228Z,1006.10
2022-11-27T10:51:05.355Z,1006.10
2022-11-27T10:52:05.393Z,1006.09
2022-11-27T10:53:05.503Z,1006.03
2022-11-27T10:54:05.578Z,1006.04
2022-11-27T10:55:05.647Z,1006.04
2022-11-27T10:56:05.737Z,1006.01
2022-11-27T10:57:05.815Z,1006.02
2022-11-27T10:58:05.898Z,1005.91
2022-11-27T10:59:05.971Z,1005.93
2022-11-27T11:00:06.035Z,1005.94
2022-11-27T11:01:06.175Z,1005.94
2022-11-27T11:02:06.280Z,1005.93
2022-11-27T11:03:06.278Z,1005.95
2022-11-27T11:04:24.249Z,1005.92
2022-11-27T11:05:31.213Z,1005.94
2022-11-27T11:06:23.266Z,1005.92
2022-11-27T11:07:06.613Z,1005.91
2022-11-27T11:08:06.688Z,1005.83
2022-11-27T11:09:06.771Z,1005.88
2022-11-27T11:10:06.843Z,1005.81
2022-11-27T11:11:06.966Z,1005.80
2022-11-27T11:12:07.014Z,1005.79
2022-11-27T11:13:07.138Z,1005.79
2022-11-27T11:14:07.147Z,1005.77
2022-11-27T11:15:07.232Z,1005.80
2022-11-27T11:16:09.809Z,1005.78
2022-11-27T11:17:07.609Z,1005.74
2022-11-27T11:18:07.418Z,1005.76
2022-11-27T11:19:07.488Z,1005.78
2022-11-27T11:20:07.566Z,1005.77
2022-11-27T11:21:07.666Z,1005.83
2022-11-27T11:22:13.230Z,1005.71
2022-11-27T11:23:07.790Z,1005.75
2022-11-27T11:24:07.867Z,1005.70
2022-11-27T11:25:07.981Z,1005.67
2022-11-27T11:26:08.068Z,1005.68
2022-11-27T11:27:08.139Z,1005.60
2022-11-27T11:28:08.216Z,1005.65
2022-11-27T11:29:08.288Z,1005.55
2022-11-27T11:30:08.363Z,1005.52
2022-11-27T11:31:08.464Z,1005.52
2022-11-27T11:32:08.612Z,1005.47
2022-11-27T11:33:08.601Z,1005.45
2022-11-27T11:34:08.679Z,1005.43
2022-11-27T11:35:08.765Z,1005.39
2022-11-27T11:36:09.012Z,1005.34
2022-11-27T11:37:08.930Z,1005.29
2022-11-27T11:38:09.020Z,1005.22
2022-11-27T11:39:09.102Z,1005.18
2022-11-27T11:40:14.649Z,1005.15
2022-11-27T11:41:09.280Z,1005.08
2022-11-27T11:42:09.323Z,1005.07
2022-11-27T11:43:09.411Z,1005.07
2022-11-27T11:44:09.488Z,1005.04
2022-11-27T11:45:09.561Z,1005.08
2022-11-27T11:46:09.705Z,1005.02
2022-11-27T11:47:09.725Z,1005.05
2022-11-27T11:48:09.805Z,1004.93
2022-11-27T11:49:09.879Z,1004.87
2022-11-27T11:50:09.945Z,1004.89
2022-11-27T11:51:10.064Z,1004.89
2022-11-27T11:52:10.102Z,1004.96
2022-11-27T11:53:10.211Z,1005.04
2022-11-27T11:54:10.285Z,1005.00
2022-11-27T11:55:10.395Z,1004.93
2022-11-27T11:56:10.487Z,1004.93
2022-11-27T11:57:10.553Z,1004.98
2022-11-27T11:58:10.633Z,1004.92
2022-11-27T11:59:10.728Z,1004.90
2022-11-27T12:00:10.786Z,1004.90
2022-11-27T12:01:26.375Z,1004.90
2022-11-27T12:02:10.990Z,1004.87
2022-11-27T12:03:11.025Z,1004.79
2022-11-27T12:04:11.129Z,1004.77
2022-11-27T12:05:11.178Z,1004.72
2022-11-27T12:06:11.266Z,1004.70